createdAt,value
2018-12-14T00:02:01.749Z,27.67
2018-12-14T00:04:30.900Z,26.90
2018-12-14T00:07:00.050Z,25.33
2018-12-14T00:09:29.206Z,25.33
2018-12-14T00:11:58.372Z,22.90
2018-12-14T00:14:27.519Z,19.20
2018-12-14T00:16:56.688Z,16.13
2018-12-14T00:19:25.895Z,16.73
2018-12-14T00:21:55.048Z,18.30
2018-12-14T00:24:24.201Z,17.07
2018-12-14T00:26:53.362Z,16.23
2018-12-14T00:29:22.469Z,17.50
2018-12-14T00:31:51.578Z,17.80
2018-12-14T00:34:20.650Z,16.70
2018-12-14T00:36:49.857Z,19.27
2018-12-14T00:39:18.975Z,16.60
2018-12-14T00:41:51.889Z,16.87
2018-12-14T00:44:19.253Z,14.70
2018-12-14T00:46:48.372Z,16.93
2018-12-14T00:49:17.496Z,15.80
2018-12-14T00:51:46.640Z,16.10
2018-12-14T00:54:15.756Z,13.43
2018-12-14T00:56:44.886Z,15.10
2018-12-14T00:59:13.996Z,16.63
2018-12-14T01:01:43.157Z,20.50
2018-12-14T01:04:12.277Z,18.60
2018-12-14T01:06:41.445Z,20.63
2018-12-14T01:09:10.554Z,26.40
2018-12-14T01:11:39.699Z,16.50
2018-12-14T01:14:08.884Z,13.47
2018-12-14T01:16:38.023Z,12.90
2018-12-14T01:19:07.146Z,13.23
2018-12-14T01:21:36.556Z,13.57
2018-12-14T01:24:05.684Z,14.40
2018-12-14T01:26:34.819Z,14.93
2018-12-14T01:29:03.916Z,14.63
2018-12-14T01:31:33.024Z,16.17
2018-12-14T01:34:32.705Z,14.30
2018-12-14T01:37:01.812Z,18.13
2018-12-14T01:39:31.037Z,24.90
2018-12-14T01:42:04.773Z,24.17
2018-12-14T01:44:31.285Z,12.47
2018-12-14T01:47:00.409Z,13.57
2018-12-14T01:49:29.517Z,10.87
2018-12-14T01:51:58.643Z,11.60
2018-12-14T01:54:27.765Z,10.90
2018-12-14T01:56:56.913Z,12.40
2018-12-14T01:59:26.018Z,12.03
2018-12-14T02:01:55.139Z,11.50
2018-12-14T02:04:24.262Z,9.83
2018-12-14T02:06:53.380Z,10.87
2018-12-14T02:09:22.537Z,10.13
2018-12-14T02:11:51.672Z,11.77
2018-12-14T02:14:20.815Z,10.07
2018-12-14T02:16:49.961Z,11.83
2018-12-14T02:19:19.089Z,10.33
2018-12-14T02:21:48.225Z,12.40
2018-12-14T02:24:17.334Z,14.23
2018-12-14T02:26:46.458Z,12.87
2018-12-14T02:29:15.586Z,14.90
2018-12-14T02:31:44.700Z,18.83
2018-12-14T02:34:13.813Z,15.47
2018-12-14T02:36:42.977Z,16.40
2018-12-14T02:39:12.173Z,15.53
2018-12-14T02:41:41.280Z,15.80
2018-12-14T02:44:10.400Z,15.93
2018-12-14T02:46:39.509Z,15.77
2018-12-14T02:49:08.646Z,15.70
2018-12-14T02:51:38.013Z,16.17
2018-12-14T02:54:07.140Z,17.17
2018-12-14T02:56:36.268Z,16.50
2018-12-14T02:59:05.391Z,17.07
2018-12-14T03:01:34.525Z,15.73
2018-12-14T03:04:03.632Z,17.47
2018-12-14T03:06:39.116Z,16.50
2018-12-14T03:09:08.293Z,16.97
2018-12-14T03:11:37.410Z,15.50
2018-12-14T03:14:06.517Z,17.50
2018-12-14T03:16:35.661Z,19.80
2018-12-14T03:19:04.794Z,18.33
2018-12-14T03:21:33.932Z,17.83
2018-12-14T03:24:03.051Z,19.53
2018-12-14T03:26:32.194Z,19.40
2018-12-14T03:29:01.782Z,18.47
2018-12-14T03:31:30.918Z,18.07
2018-12-14T03:34:00.044Z,20.57
2018-12-14T03:36:29.170Z,17.27
2018-12-14T03:38:58.285Z,18.70
2018-12-14T03:41:27.772Z,21.77
2018-12-14T03:43:56.900Z,21.10
2018-12-14T03:46:26.030Z,20.90
2018-12-14T03:48:55.161Z,20.10
2018-12-14T03:51:29.080Z,20.80
2018-12-14T03:53:58.267Z,20.27
2018-12-14T03:56:27.394Z,19.00
2018-12-14T03:58:56.485Z,21.40
2018-12-14T04:01:25.614Z,24.20
2018-12-14T04:03:54.753Z,39.50
2018-12-14T04:06:23.874Z,35.37
2018-12-14T04:08:52.975Z,36.27
2018-12-14T04:11:22.094Z,38.50
2018-12-14T04:13:51.259Z,53.00
2018-12-14T04:16:20.389Z,56.90
2018-12-14T04:18:49.526Z,56.67
2018-12-14T04:21:18.639Z,51.77
2018-12-14T04:23:47.771Z,49.63
2018-12-14T04:26:16.876Z,49.13
2018-12-14T04:28:46.018Z,50.03
2018-12-14T04:31:15.186Z,51.87
2018-12-14T04:33:44.465Z,48.97
2018-12-14T04:36:13.564Z,47.13
2018-12-14T04:38:42.675Z,47.20
2018-12-14T04:41:11.889Z,48.67
2018-12-14T04:43:40.988Z,49.00
2018-12-14T04:46:10.128Z,56.70
2018-12-14T04:48:39.244Z,65.67
2018-12-14T04:51:09.242Z,68.93
2018-12-14T04:53:38.391Z,70.10
2018-12-14T04:56:07.493Z,76.03
2018-12-14T04:58:36.628Z,68.47
2018-12-14T05:01:05.782Z,66.00
2018-12-14T05:03:35.417Z,73.83
2018-12-14T05:06:04.529Z,74.23
2018-12-14T05:08:33.678Z,76.00
2018-12-14T05:11:02.789Z,69.10
2018-12-14T05:13:31.898Z,65.30
2018-12-14T05:16:01.010Z,67.90
2018-12-14T05:18:30.149Z,62.10
2018-12-14T05:20:59.264Z,56.50
2018-12-14T05:23:28.373Z,53.97
2018-12-14T05:25:57.488Z,57.87
2018-12-14T05:28:26.624Z,71.15
2018-12-14T05:30:55.765Z,54.83
2018-12-14T05:33:24.892Z,52.83
2018-12-14T05:35:54.024Z,53.67
2018-12-14T05:38:23.161Z,49.23
2018-12-14T05:40:52.273Z,52.00
2018-12-14T05:43:21.400Z,50.33
2018-12-14T05:45:50.541Z,56.80
2018-12-14T05:48:19.692Z,57.07
2018-12-14T05:50:48.801Z,53.40
2018-12-14T05:53:17.929Z,52.27
2018-12-14T05:55:47.034Z,54.87
2018-12-14T05:58:16.341Z,64.77
2018-12-14T06:00:45.590Z,57.73
2018-12-14T06:03:14.907Z,55.83
2018-12-14T06:05:44.065Z,54.30
2018-12-14T06:08:13.201Z,50.87
2018-12-14T06:10:42.322Z,49.97
2018-12-14T06:13:11.649Z,64.20
2018-12-14T06:15:41.024Z,68.97
2018-12-14T06:18:10.141Z,74.20
2018-12-14T06:20:39.230Z,73.80
2018-12-14T06:23:08.337Z,59.83
2018-12-14T06:25:37.480Z,58.30
2018-12-14T06:28:06.701Z,58.00
2018-12-14T06:30:35.777Z,58.27
2018-12-14T06:33:04.881Z,62.00
2018-12-14T06:35:33.980Z,57.00
2018-12-14T06:38:03.104Z,58.50
2018-12-14T06:40:32.196Z,61.03
2018-12-14T06:43:01.314Z,58.23
2018-12-14T06:45:30.444Z,58.07
2018-12-14T06:48:05.983Z,59.50
2018-12-14T06:50:35.156Z,80.70
2018-12-14T06:53:04.540Z,73.87
2018-12-14T06:55:33.639Z,61.90
2018-12-14T06:58:02.718Z,60.83
2018-12-14T07:00:31.820Z,61.50
2018-12-14T07:03:00.953Z,63.80
2018-12-14T07:05:30.029Z,59.60
2018-12-14T07:07:59.126Z,63.00
2018-12-14T07:10:28.223Z,62.93
2018-12-14T07:12:57.349Z,61.57
2018-12-14T07:15:26.442Z,62.17
2018-12-14T07:17:55.555Z,82.87
2018-12-14T07:20:24.633Z,80.20
2018-12-14T07:22:53.720Z,69.63
2018-12-14T07:25:22.812Z,69.07
2018-12-14T07:27:51.937Z,60.57
2018-12-14T07:30:21.021Z,57.00
2018-12-14T07:32:50.136Z,67.73
2018-12-14T07:35:19.252Z,85.27
2018-12-14T07:37:48.338Z,79.47
2018-12-14T07:40:17.456Z,91.90
2018-12-14T07:42:46.586Z,88.97
2018-12-14T07:45:15.758Z,88.63
2018-12-14T07:47:44.856Z,79.17
2018-12-14T07:50:13.957Z,66.97
2018-12-14T07:52:43.069Z,56.30
2018-12-14T07:55:12.168Z,49.53
2018-12-14T07:57:41.273Z,45.07
2018-12-14T08:00:10.508Z,36.87
2018-12-14T08:02:39.619Z,33.43
2018-12-14T08:05:08.911Z,32.33
2018-12-14T08:07:38.024Z,32.03
2018-12-14T08:10:07.321Z,38.80
2018-12-14T08:12:36.430Z,44.17
2018-12-14T08:15:11.112Z,44.10
2018-12-14T08:17:36.840Z,30.50
2018-12-14T08:20:06.043Z,30.53
2018-12-14T08:22:35.218Z,34.30
2018-12-14T08:25:04.538Z,32.90
2018-12-14T08:27:33.715Z,27.73
2018-12-14T08:30:02.835Z,34.30
2018-12-14T08:32:31.953Z,27.57
2018-12-14T08:35:01.093Z,23.47
2018-12-14T08:37:30.296Z,23.53
2018-12-14T08:39:59.423Z,20.07
2018-12-14T08:42:28.530Z,16.40
2018-12-14T08:44:57.705Z,16.17
2018-12-14T08:47:26.827Z,11.00
2018-12-14T08:49:55.971Z,11.70
2018-12-14T08:52:25.073Z,14.27
2018-12-14T08:54:54.181Z,15.80
2018-12-14T08:57:23.363Z,16.47
2018-12-14T08:59:52.461Z,16.17
2018-12-14T09:02:21.580Z,37.37
2018-12-14T09:04:50.710Z,14.00
2018-12-14T09:07:24.506Z,12.60
2018-12-14T09:09:51.670Z,12.90
2018-12-14T09:12:20.809Z,19.77
2018-12-14T09:14:49.949Z,16.97
2018-12-14T09:17:19.047Z,44.20
2018-12-14T09:19:49.030Z,55.50
2018-12-14T09:22:18.105Z,60.43
2018-12-14T09:24:47.209Z,51.07
2018-12-14T09:27:16.313Z,39.17
2018-12-14T09:29:45.446Z,48.13
2018-12-14T09:32:14.561Z,42.97
2018-12-14T09:34:43.847Z,42.80
2018-12-14T09:37:12.954Z,32.23
2018-12-14T09:39:42.063Z,24.27
2018-12-14T09:42:11.177Z,26.70
2018-12-14T09:44:40.312Z,22.77
2018-12-14T09:47:09.435Z,19.37
2018-12-14T09:49:38.548Z,17.20
2018-12-14T09:52:07.652Z,19.67
2018-12-14T09:54:36.774Z,15.00
2018-12-14T09:57:05.913Z,16.57
2018-12-14T09:59:35.028Z,16.23
2018-12-14T10:02:04.147Z,16.73
2018-12-14T10:04:34.267Z,16.40
2018-12-14T10:07:03.406Z,15.53
2018-12-14T10:09:32.533Z,15.00
2018-12-14T10:12:01.662Z,13.63
2018-12-14T10:14:30.790Z,11.40
2018-12-14T10:16:59.903Z,11.88
2018-12-14T10:19:28.981Z,11.65
2018-12-14T10:21:58.101Z,10.73
2018-12-14T10:24:27.297Z,10.03
2018-12-14T10:26:56.502Z,9.27
2018-12-14T10:29:25.576Z,9.80
2018-12-14T10:31:54.677Z,8.30
2018-12-14T10:34:23.797Z,10.23
2018-12-14T10:36:52.917Z,9.33
2018-12-14T10:39:22.069Z,9.07
2018-12-14T10:41:51.204Z,8.90
2018-12-14T10:44:20.323Z,8.67
2018-12-14T10:46:49.452Z,8.90
2018-12-14T10:49:18.565Z,10.10
2018-12-14T10:51:47.838Z,7.83
2018-12-14T10:54:17.222Z,9.00
2018-12-14T10:56:46.352Z,8.90
2018-12-14T10:59:15.476Z,6.73
2018-12-14T11:01:49.705Z,7.47
2018-12-14T11:04:18.832Z,7.63
2018-12-14T11:06:47.939Z,8.97
2018-12-14T11:09:17.052Z,9.40
2018-12-14T11:11:46.256Z,9.67
2018-12-14T11:14:15.358Z,8.90
2018-12-14T11:16:44.474Z,9.60
2018-12-14T11:19:13.625Z,10.07
2018-12-14T11:21:42.773Z,11.00
2018-12-14T11:24:11.885Z,10.57
2018-12-14T11:26:41.010Z,11.20
2018-12-14T11:29:10.124Z,11.70
2018-12-14T11:31:39.249Z,10.03
2018-12-14T11:34:08.337Z,9.77
2018-12-14T11:36:38.179Z,10.87
2018-12-14T11:39:07.741Z,10.90
2018-12-14T11:41:37.062Z,11.17
2018-12-14T11:44:06.128Z,10.90
2018-12-14T11:46:35.273Z,12.43
2018-12-14T11:49:04.385Z,13.40
2018-12-14T11:51:33.488Z,12.60
2018-12-14T11:54:02.577Z,12.30
2018-12-14T11:56:31.732Z,11.73
2018-12-14T11:59:00.857Z,11.53
2018-12-14T12:01:30.057Z,11.40
2018-12-14T12:03:59.116Z,11.63
2018-12-14T12:06:28.239Z,11.27
2018-12-14T12:08:57.349Z,10.87
2018-12-14T12:11:26.484Z,10.20
2018-12-14T12:13:55.576Z,10.43
2018-12-14T12:16:24.688Z,11.23
2018-12-14T12:18:53.862Z,10.97
2018-12-14T12:21:22.957Z,10.80
2018-12-14T12:23:55.232Z,10.30
2018-12-14T12:26:23.190Z,12.13
2018-12-14T12:28:52.307Z,11.50
2018-12-14T12:31:21.428Z,9.90
2018-12-14T12:33:50.573Z,12.10
2018-12-14T12:36:19.725Z,10.73
2018-12-14T12:38:48.873Z,10.83
2018-12-14T12:41:18.004Z,11.40
2018-12-14T12:43:47.133Z,11.73
2018-12-14T12:46:16.242Z,11.87
2018-12-14T12:48:45.608Z,9.97
2018-12-14T12:51:14.999Z,10.70
2018-12-14T12:53:44.089Z,11.13
2018-12-14T12:56:13.482Z,10.87
2018-12-14T12:58:42.622Z,11.70
2018-12-14T13:01:11.708Z,10.00
2018-12-14T13:03:40.805Z,9.30
2018-12-14T13:06:09.918Z,9.33
2018-12-14T13:08:39.588Z,9.50
2018-12-14T13:11:08.705Z,11.90
2018-12-14T13:13:37.801Z,11.75
2018-12-14T13:16:06.967Z,12.27
2018-12-14T13:18:36.112Z,10.83
2018-12-14T13:21:05.202Z,12.90
2018-12-14T13:23:34.349Z,11.73
2018-12-14T13:26:03.494Z,12.30
2018-12-14T13:28:32.857Z,9.87
2018-12-14T13:31:02.034Z,13.53
2018-12-14T13:33:31.278Z,15.13
2018-12-14T13:36:00.448Z,10.80
2018-12-14T13:38:29.529Z,9.30
2018-12-14T13:40:58.641Z,11.00
2018-12-14T13:43:27.817Z,11.20
2018-12-14T13:45:56.929Z,12.80
2018-12-14T13:48:26.043Z,11.27
2018-12-14T13:50:55.215Z,14.50
2018-12-14T13:53:24.333Z,10.23
2018-12-14T13:55:53.451Z,11.63
2018-12-14T13:58:22.539Z,11.67
2018-12-14T14:00:51.657Z,11.70
2018-12-14T14:03:20.765Z,12.87
2018-12-14T14:05:49.873Z,11.23
2018-12-14T14:08:19.084Z,11.23
2018-12-14T14:10:48.218Z,13.60
2018-12-14T14:13:17.351Z,12.40
2018-12-14T14:15:50.748Z,11.93
2018-12-14T14:18:17.631Z,12.87
2018-12-14T14:20:46.759Z,17.53
2018-12-14T14:23:15.888Z,25.23
2018-12-14T14:25:45.309Z,25.90
2018-12-14T14:28:14.397Z,22.70
2018-12-14T14:30:43.477Z,22.80
2018-12-14T14:33:12.572Z,23.33
2018-12-14T14:35:41.680Z,18.37
2018-12-14T14:38:10.778Z,19.00
2018-12-14T14:40:39.917Z,15.30
2018-12-14T14:43:09.021Z,18.70
2018-12-14T14:45:38.158Z,20.13
2018-12-14T14:48:07.345Z,21.10
2018-12-14T14:50:36.458Z,20.80
2018-12-14T14:53:05.579Z,19.80
2018-12-14T14:55:34.680Z,22.00
2018-12-14T14:58:03.798Z,20.27
2018-12-14T15:00:33.466Z,20.77
2018-12-14T15:03:02.916Z,20.57
2018-12-14T15:05:32.047Z,18.17
2018-12-14T15:08:02.202Z,18.83
2018-12-14T15:10:31.321Z,18.77
2018-12-14T15:13:00.448Z,16.13
2018-12-14T15:15:29.566Z,18.07
2018-12-14T15:17:58.695Z,20.10
2018-12-14T15:20:27.799Z,21.80
2018-12-14T15:22:56.926Z,29.07
2018-12-14T15:25:26.020Z,26.93
2018-12-14T15:27:55.118Z,37.20
2018-12-14T15:30:24.220Z,48.27
2018-12-14T15:32:53.332Z,30.50
2018-12-14T15:35:22.516Z,27.97
2018-12-14T15:37:51.706Z,31.57
2018-12-14T15:40:20.833Z,33.63
2018-12-14T15:42:49.977Z,27.47
2018-12-14T15:45:19.081Z,26.70
2018-12-14T15:47:48.203Z,26.03
2018-12-14T15:50:17.325Z,26.87
2018-12-14T15:52:46.451Z,28.30
2018-12-14T15:55:15.538Z,32.47
2018-12-14T15:57:44.653Z,36.73
2018-12-14T16:00:13.753Z,37.03
2018-12-14T16:02:42.846Z,35.77
2018-12-14T16:05:11.965Z,46.70
2018-12-14T16:07:41.079Z,43.00
2018-12-14T16:10:10.204Z,42.50
2018-12-14T16:12:39.333Z,40.57
2018-12-14T16:15:09.026Z,41.83
2018-12-14T16:17:38.175Z,42.00
2018-12-14T16:20:09.187Z,40.93
2018-12-14T16:22:38.306Z,40.00
2018-12-14T16:25:08.336Z,41.67
2018-12-14T16:27:37.988Z,41.90
2018-12-14T16:30:09.513Z,41.07
2018-12-14T16:32:38.628Z,40.70
2018-12-14T16:35:07.746Z,42.80
2018-12-14T16:37:36.915Z,41.77
2018-12-14T16:40:06.576Z,43.87
2018-12-14T16:42:35.804Z,42.50
2018-12-14T16:45:04.986Z,48.67
2018-12-14T16:47:34.126Z,40.67
2018-12-14T16:50:03.215Z,44.70
2018-12-14T16:52:32.354Z,49.53
2018-12-14T16:55:01.481Z,46.47
2018-12-14T16:57:30.584Z,48.27
2018-12-14T16:59:59.769Z,49.63
2018-12-14T17:02:28.881Z,46.37
2018-12-14T17:04:58.021Z,56.43
2018-12-14T17:07:27.165Z,58.80
2018-12-14T17:09:56.289Z,49.00
2018-12-14T17:12:25.509Z,53.73
2018-12-14T17:14:54.606Z,51.93
2018-12-14T17:17:23.876Z,52.60
2018-12-14T17:19:53.021Z,53.43
2018-12-14T17:22:22.148Z,55.50
2018-12-14T17:24:51.254Z,51.33
2018-12-14T17:27:20.652Z,52.47
2018-12-14T17:29:49.785Z,53.00
2018-12-14T17:32:18.928Z,56.37
2018-12-14T17:34:48.053Z,54.50
2018-12-14T17:37:17.180Z,57.67
2018-12-14T17:39:46.306Z,64.97
2018-12-14T17:42:15.439Z,61.50
2018-12-14T17:44:44.761Z,64.03
2018-12-14T17:47:13.913Z,62.40
2018-12-14T17:49:43.020Z,65.10
2018-12-14T17:52:12.164Z,67.47
2018-12-14T17:54:41.301Z,78.10
2018-12-14T17:57:10.429Z,81.43
2018-12-14T17:59:39.544Z,89.13
2018-12-14T18:02:08.724Z,85.57
2018-12-14T18:04:37.861Z,103.57
2018-12-14T18:07:07.015Z,110.03
2018-12-14T18:09:36.174Z,121.77
2018-12-14T18:12:05.347Z,121.07
2018-12-14T18:14:34.494Z,120.77
2018-12-14T18:17:03.618Z,116.10
2018-12-14T18:19:32.791Z,108.67
2018-12-14T18:22:01.931Z,103.17
2018-12-14T18:24:31.091Z,105.67
2018-12-14T18:27:00.225Z,104.37
2018-12-14T18:29:29.387Z,107.40
2018-12-14T18:32:12.831Z,108.80
2018-12-14T18:34:42.014Z,100.57
2018-12-14T18:37:11.259Z,103.27
2018-12-14T18:39:40.429Z,101.77
2018-12-14T18:42:09.596Z,100.47
2018-12-14T18:44:38.884Z,110.00
2018-12-14T18:47:08.155Z,106.40
2018-12-14T18:49:37.335Z,91.13
2018-12-14T18:52:06.484Z,93.90
2018-12-14T18:54:35.630Z,102.50
2018-12-14T18:57:04.777Z,108.60
2018-12-14T18:59:33.938Z,115.30
2018-12-14T19:02:03.049Z,107.17
2018-12-14T19:04:32.169Z,106.93
2018-12-14T19:07:01.569Z,107.10
2018-12-14T19:09:30.713Z,108.60
2018-12-14T19:11:59.822Z,85.40
2018-12-14T19:14:28.941Z,97.07
2018-12-14T19:16:58.103Z,91.13
2018-12-14T19:19:27.251Z,88.40
2018-12-14T19:21:56.374Z,92.57
2018-12-14T19:24:25.505Z,83.97
2018-12-14T19:26:54.627Z,82.40
2018-12-14T19:29:23.737Z,97.20
2018-12-14T19:31:52.867Z,90.93
2018-12-14T19:34:21.982Z,85.50
2018-12-14T19:36:51.107Z,90.60
2018-12-14T19:39:20.409Z,87.37
2018-12-14T19:41:49.561Z,78.87
2018-12-14T19:44:18.698Z,81.90
2018-12-14T19:46:47.833Z,65.60
2018-12-14T19:49:16.970Z,57.17
2018-12-14T19:51:46.082Z,56.87
2018-12-14T19:54:15.260Z,54.80
2018-12-14T19:56:44.573Z,50.93
2018-12-14T19:59:13.685Z,46.00
2018-12-14T20:01:42.880Z,43.37
2018-12-14T20:04:11.983Z,45.70
2018-12-14T20:06:41.134Z,44.77
2018-12-14T20:09:10.240Z,41.90
2018-12-14T20:11:39.350Z,41.27
2018-12-14T20:14:09.007Z,41.70
2018-12-14T20:16:38.339Z,44.20
2018-12-14T20:19:07.451Z,42.40
2018-12-14T20:21:36.566Z,43.00
2018-12-14T20:24:05.718Z,39.23
2018-12-14T20:26:34.837Z,43.40
2018-12-14T20:29:03.949Z,41.07
2018-12-14T20:31:33.049Z,42.00
2018-12-14T20:34:02.190Z,46.30
2018-12-14T20:36:31.295Z,44.10
2018-12-14T20:39:00.465Z,48.27
2018-12-14T20:41:29.609Z,60.00
2018-12-14T20:43:58.717Z,64.97
2018-12-14T20:46:27.849Z,53.17
2018-12-14T20:48:56.959Z,48.07
2018-12-14T20:51:26.046Z,45.10
2018-12-14T20:53:56.268Z,49.60
2018-12-14T20:56:25.357Z,61.60
2018-12-14T20:58:54.473Z,85.03
2018-12-14T21:01:23.572Z,59.93
2018-12-14T21:03:52.708Z,77.07
2018-12-14T21:06:21.820Z,91.00
2018-12-14T21:08:50.941Z,82.80
2018-12-14T21:11:20.058Z,52.47
2018-12-14T21:13:49.199Z,56.47
2018-12-14T21:16:18.341Z,56.00
2018-12-14T21:18:47.466Z,62.67
2018-12-14T21:21:16.573Z,72.73
2018-12-14T21:23:45.691Z,79.97
2018-12-14T21:26:14.786Z,77.20
2018-12-14T21:28:43.890Z,69.40
2018-12-14T21:31:12.985Z,59.87
2018-12-14T21:33:42.086Z,60.20
2018-12-14T21:36:11.201Z,59.63
2018-12-14T21:38:40.320Z,66.00
2018-12-14T21:41:09.426Z,62.37
2018-12-14T21:43:38.537Z,56.70
2018-12-14T21:46:07.661Z,55.80
2018-12-14T21:48:36.765Z,59.73
2018-12-14T21:51:05.852Z,59.20
2018-12-14T21:53:34.979Z,51.30
2018-12-14T21:56:04.087Z,51.77
2018-12-14T21:58:33.194Z,48.33
2018-12-14T22:01:02.310Z,47.07
2018-12-14T22:03:31.407Z,43.40
2018-12-14T22:06:00.549Z,46.33
2018-12-14T22:08:29.642Z,47.20
2018-12-14T22:10:58.754Z,63.77
2018-12-14T22:13:27.876Z,56.03
2018-12-14T22:15:57.014Z,49.10
2018-12-14T22:18:26.125Z,47.50
2018-12-14T22:20:55.241Z,48.47
2018-12-14T22:23:24.366Z,46.10
2018-12-14T22:25:53.471Z,45.90
2018-12-14T22:28:22.566Z,47.17
2018-12-14T22:30:51.717Z,47.67
2018-12-14T22:33:20.824Z,49.43
2018-12-14T22:35:49.980Z,47.33
2018-12-14T22:38:19.481Z,45.10
2018-12-14T22:40:48.593Z,48.37
2018-12-14T22:43:17.694Z,47.07
2018-12-14T22:45:46.802Z,49.10
2018-12-14T22:48:15.890Z,44.37
2018-12-14T22:50:45.013Z,43.67
2018-12-14T22:53:14.127Z,45.20
2018-12-14T22:55:43.257Z,45.30
2018-12-14T22:58:12.341Z,47.10
2018-12-14T23:00:46.567Z,46.17
2018-12-14T23:03:15.670Z,42.40
2018-12-14T23:05:44.813Z,43.23
2018-12-14T23:08:13.939Z,43.20
2018-12-14T23:10:43.041Z,43.30
2018-12-14T23:13:12.129Z,41.73
2018-12-14T23:15:41.280Z,41.80
2018-12-14T23:18:10.370Z,40.87
2018-12-14T23:20:39.489Z,41.23
2018-12-14T23:23:08.593Z,42.07
2018-12-14T23:25:37.776Z,41.90
2018-12-14T23:28:06.854Z,42.07
2018-12-14T23:30:35.971Z,41.67
2018-12-14T23:33:05.067Z,45.50
2018-12-14T23:35:34.186Z,52.57
2018-12-14T23:38:03.311Z,48.23
2018-12-14T23:40:32.463Z,45.90
2018-12-14T23:43:01.554Z,46.10
2018-12-14T23:45:30.659Z,46.60
2018-12-14T23:47:59.748Z,53.50
2018-12-14T23:50:28.865Z,50.63
2018-12-14T23:52:57.988Z,49.30
2018-12-14T23:55:27.107Z,45.63
2018-12-14T23:57:56.229Z,50.40
